Time;durP1;ratioP1;P1;durP2;ratioP2;P2;SDS_P1;SDS_P2;PMS_P1;PMS_P2;Temp;Humidity;BMP_temperature;BMP_pressure;BME280_temperature;BME280_humidity;BME280_pressure;Samples;Min_cycle;Max_cycle;Signal;HPM_P1;HPM_P2
2020/12/08 00:03:42;;;;;;;21.45;12.90;;;4.30;99.90;;;;;;10247489;28;20050;-65
2020/12/08 00:08:43;;;;;;;19.60;12.70;;;4.20;99.90;;;;;;10259786;28;20062;-65
2020/12/08 00:13:45;;;;;;;20.17;11.75;;;4.10;99.90;;;;;;10248185;28;20055;-65
2020/12/08 00:18:47;;;;;;;17.88;10.63;;;4.20;99.90;;;;;;10252852;28;20043;-65
2020/12/08 00:23:48;;;;;;;20.00;10.95;;;4.20;99.90;;;;;;10251837;28;20050;-65
2020/12/08 00:28:50;;;;;;;18.00;10.93;;;4.20;99.90;;;;;;10250306;28;20054;-65
2020/12/08 00:33:51;;;;;;;22.17;11.68;;;4.10;99.90;;;;;;10251732;28;20055;-65
2020/12/08 00:38:53;;;;;;;19.40;9.82;;;4.10;99.90;;;;;;10244959;28;20061;-65
2020/12/08 00:43:54;;;;;;;17.85;10.35;;;4.00;99.90;;;;;;10252113;28;20082;-65
2020/12/08 00:48:56;;;;;;;16.65;9.63;;;4.00;99.90;;;;;;10247782;28;20421;-65
2020/12/08 00:53:57;;;;;;;15.70;9.10;;;3.90;99.90;;;;;;10259200;28;20047;-65
2020/12/08 00:58:59;;;;;;;16.63;9.15;;;3.90;99.90;;;;;;10254864;28;20043;-65
2020/12/08 01:04:00;;;;;;;18.33;9.93;;;3.80;99.90;;;;;;10258969;28;20136;-65
2020/12/08 01:09:01;;;;;;;17.85;9.80;;;3.60;99.90;;;;;;10244198;28;20150;-65
2020/12/08 01:14:02;;;;;;;18.17;9.52;;;3.40;99.90;;;;;;10244087;28;20047;-65
2020/12/08 01:19:04;;;;;;;18.55;9.75;;;3.20;99.90;;;;;;10248170;28;20062;-65
2020/12/08 01:24:05;;;;;;;17.50;10.20;;;3.10;99.90;;;;;;10250536;28;20503;-65
2020/12/08 01:29:07;;;;;;;19.40;10.68;;;3.10;99.90;;;;;;10244979;28;20058;-65
2020/12/08 01:34:08;;;;;;;19.00;10.10;;;3.20;99.90;;;;;;10243314;28;20494;-65
2020/12/08 01:39:09;;;;;;;18.65;10.00;;;3.20;99.90;;;;;;10243970;28;20059;-65
2020/12/08 01:44:10;;;;;;;17.40;9.55;;;3.30;99.90;;;;;;10243483;28;20449;-65
2020/12/08 01:49:12;;;;;;;16.30;8.55;;;3.30;99.90;;;;;;10246034;28;20061;-65
2020/12/08 01:54:14;;;;;;;15.70;9.48;;;3.20;99.90;;;;;;10242076;28;20069;-65
2020/12/08 01:59:15;;;;;;;16.58;9.07;;;3.20;99.90;;;;;;10238470;28;20062;-65
2020/12/08 02:04:16;;;;;;;17.65;9.05;;;3.20;99.90;;;;;;10244036;28;20062;-65
2020/12/08 02:09:17;;;;;;;16.58;9.10;;;3.20;99.90;;;;;;10241727;28;20142;-65
2020/12/08 02:14:19;;;;;;;17.05;9.57;;;3.30;99.90;;;;;;10241165;28;20070;-65
2020/12/08 02:19:20;;;;;;;15.07;9.38;;;3.30;99.90;;;;;;10245158;28;21015;-65
2020/12/08 02:24:21;;;;;;;16.15;9.35;;;3.30;99.90;;;;;;10249728;28;20419;-65
2020/12/08 02:29:22;;;;;;;18.23;10.40;;;3.20;99.90;;;;;;10248456;28;20061;-65
2020/12/08 02:34:24;;;;;;;15.23;8.65;;;3.30;99.90;;;;;;10249216;28;20053;-66
2020/12/08 02:39:26;;;;;;;14.10;8.55;;;3.30;99.90;;;;;;10252588;28;20118;-65
2020/12/08 02:44:27;;;;;;;14.95;9.38;;;3.30;99.90;;;;;;10247474;28;20066;-65
2020/12/08 02:49:28;;;;;;;15.90;8.88;;;3.30;99.90;;;;;;10241257;28;20046;-65
2020/12/08 02:54:30;;;;;;;16.77;9.18;;;3.20;99.90;;;;;;10254058;28;20049;-65
2020/12/08 02:59:32;;;;;;;16.27;9.25;;;3.10;99.90;;;;;;10255232;28;20058;-65
2020/12/08 03:04:33;;;;;;;17.02;9.35;;;3.30;99.90;;;;;;10249298;28;20047;-65
2020/12/08 03:09:35;;;;;;;21.38;10.38;;;3.20;99.90;;;;;;10256941;28;20043;-65
2020/12/08 03:14:36;;;;;;;17.23;9.48;;;3.20;99.90;;;;;;10243895;28;20047;-65
2020/12/08 03:19:50;;;;;;;17.27;9.30;;;3.20;99.90;;;;;;10240657;28;20051;-65
2020/12/08 03:24:51;;;;;;;17.75;9.40;;;3.20;99.90;;;;;;10258753;28;20055;-65
2020/12/08 03:29:52;;;;;;;19.67;10.20;;;3.20;99.90;;;;;;10249494;28;20051;-65
2020/12/08 03:34:54;;;;;;;18.33;11.00;;;3.20;99.90;;;;;;10254799;28;20054;-65
2020/12/08 03:39:55;;;;;;;20.00;10.57;;;3.20;99.90;;;;;;10246249;28;20051;-65
2020/12/08 03:44:56;;;;;;;17.58;10.43;;;3.10;99.90;;;;;;10247476;28;20061;-65
2020/12/08 03:49:57;;;;;;;18.52;10.48;;;3.20;99.90;;;;;;10247096;28;20066;-65
2020/12/08 03:54:59;;;;;;;18.00;10.32;;;3.30;99.90;;;;;;10262189;28;20086;-65
2020/12/08 04:00:00;;;;;;;17.55;9.82;;;3.20;99.90;;;;;;10244986;28;20458;-65
2020/12/08 04:05:02;;;;;;;19.17;10.38;;;3.30;99.90;;;;;;10243328;28;22847;-65
2020/12/08 04:10:03;;;;;;;20.70;11.45;;;3.30;99.90;;;;;;10247860;28;20054;-65
2020/12/08 04:15:05;;;;;;;17.13;10.20;;;3.30;99.90;;;;;;10247909;28;20509;-65
2020/12/08 04:20:06;;;;;;;19.98;10.55;;;3.20;99.90;;;;;;10251736;28;20470;-65
2020/12/08 04:25:07;;;;;;;18.05;10.30;;;3.30;99.90;;;;;;10249399;28;20074;-65
2020/12/08 04:30:08;;;;;;;15.90;9.60;;;3.20;99.90;;;;;;10244609;28;20493;-65
2020/12/08 04:35:09;;;;;;;18.20;9.85;;;3.20;99.90;;;;;;10250159;28;20142;-65
2020/12/08 04:40:12;;;;;;;18.77;10.35;;;3.20;99.90;;;;;;10245401;28;20055;-65
2020/12/08 04:45:14;;;;;;;19.60;10.20;;;3.20;99.90;;;;;;10248654;28;20054;-65
2020/12/08 04:50:19;;;;;;;17.80;10.63;;;3.20;99.90;;;;;;10245862;28;20058;-66
2020/12/08 04:55:20;;;;;;;20.25;11.30;;;3.20;99.90;;;;;;10249281;28;20074;-65
2020/12/08 05:00:21;;;;;;;18.52;10.18;;;3.20;99.90;;;;;;10248641;28;20091;-65
2020/12/08 05:05:23;;;;;;;19.67;10.88;;;3.20;99.90;;;;;;10249181;28;20604;-65
2020/12/08 05:10:27;;;;;;;19.80;11.02;;;3.20;99.90;;;;;;10246298;28;20046;-65
2020/12/08 05:15:28;;;;;;;20.63;11.57;;;3.20;99.90;;;;;;10253540;28;20050;-65
2020/12/08 05:20:29;;;;;;;22.58;11.27;;;3.30;99.90;;;;;;10244534;28;20057;-65
2020/12/08 05:25:31;;;;;;;20.70;11.25;;;3.30;99.90;;;;;;10248254;28;20055;-65
2020/12/08 05:30:43;;;;;;;19.30;10.00;;;3.20;99.90;;;;;;10245038;28;20054;-66
2020/12/08 05:35:46;;;;;;;22.58;11.80;;;3.30;99.90;;;;;;10245919;28;20082;-66
2020/12/08 05:40:51;;;;;;;19.55;11.35;;;3.30;99.90;;;;;;10239293;28;20051;-65
2020/12/08 05:45:55;;;;;;;24.52;12.55;;;3.30;99.90;;;;;;10246165;28;20058;-65
2020/12/08 05:51:00;;;;;;;26.73;12.85;;;3.20;99.90;;;;;;10246673;28;20061;-65
2020/12/08 05:56:09;;;;;;;26.40;13.10;;;3.20;99.90;;;;;;10251489;28;20051;-66
2020/12/08 06:01:11;;;;;;;22.88;12.80;;;3.20;99.90;;;;;;10255519;28;20046;-64
2020/12/08 06:06:12;;;;;;;23.13;11.25;;;3.20;99.90;;;;;;10255896;28;20045;-65
2020/12/08 06:11:14;;;;;;;24.63;12.65;;;3.20;99.90;;;;;;10254506;28;20046;-65
2020/12/08 06:16:19;;;;;;;30.83;14.35;;;3.20;99.90;;;;;;10260366;28;20055;-65
2020/12/08 06:21:28;;;;;;;22.85;12.57;;;3.20;99.90;;;;;;10254795;28;20059;-65
2020/12/08 06:26:37;;;;;;;19.80;11.05;;;3.30;99.90;;;;;;10253962;28;20682;-65
2020/12/08 06:31:47;;;;;;;20.35;10.52;;;3.30;99.90;;;;;;10255741;28;20131;-65
2020/12/08 06:36:49;;;;;;;20.58;11.85;;;3.30;99.90;;;;;;10253133;28;20081;-65
2020/12/08 06:41:50;;;;;;;22.33;11.23;;;3.30;99.90;;;;;;10256057;28;20047;-65
2020/12/08 06:47:00;;;;;;;20.95;11.13;;;3.30;99.90;;;;;;10255773;28;20079;-65
2020/12/08 06:52:03;;;;;;;19.77;11.93;;;3.30;99.90;;;;;;10254075;28;20051;-65
2020/12/08 06:57:07;;;;;;;23.40;11.65;;;3.30;99.90;;;;;;10255899;28;20493;-65
2020/12/08 07:02:10;;;;;;;19.83;10.90;;;3.20;99.90;;;;;;10258220;28;20627;-65
2020/12/08 07:07:12;;;;;;;18.15;10.43;;;3.20;99.90;;;;;;10253875;28;20107;-65
2020/12/08 07:12:13;;;;;;;18.83;10.55;;;3.20;99.90;;;;;;10251510;28;20142;-64
2020/12/08 07:17:14;;;;;;;24.52;12.48;;;3.20;99.90;;;;;;10254927;28;20069;-64
2020/12/08 07:22:15;;;;;;;20.67;11.35;;;3.30;99.90;;;;;;10255059;28;20054;-65
2020/12/08 07:27:17;;;;;;;20.52;12.05;;;3.30;99.90;;;;;;10255944;28;20051;-64
2020/12/08 07:32:27;;;;;;;20.25;11.95;;;3.30;99.90;;;;;;10247895;28;20054;-67
2020/12/08 07:37:35;;;;;;;20.35;10.57;;;3.40;99.90;;;;;;10248957;28;20050;-67
2020/12/08 07:42:38;;;;;;;18.55;9.57;;;3.40;99.90;;;;;;10245015;28;20043;-68
2020/12/08 07:47:52;;;;;;;20.98;11.55;;;3.50;99.90;;;;;;10242615;28;20138;-64
2020/12/08 07:53:04;;;;;;;18.05;10.43;;;3.50;99.90;;;;;;10257336;28;20043;-64
2020/12/08 07:58:06;;;;;;;16.90;9.90;;;3.50;99.90;;;;;;10255864;28;20051;-64
2020/12/08 08:03:07;;;;;;;19.10;10.52;;;3.60;99.90;;;;;;10250883;28;20073;-64
2020/12/08 08:08:08;;;;;;;18.02;10.13;;;3.60;99.90;;;;;;10247376;28;20078;-64
2020/12/08 08:13:09;;;;;;;18.45;10.88;;;3.70;99.90;;;;;;10241736;28;20442;-65
2020/12/08 08:18:10;;;;;;;15.10;9.30;;;3.80;99.90;;;;;;10245722;28;20059;-64
2020/12/08 08:23:12;;;;;;;15.85;9.38;;;3.80;99.90;;;;;;10244427;28;20085;-65
2020/12/08 08:28:13;;;;;;;16.30;8.65;;;3.80;99.90;;;;;;10250810;28;20058;-66
2020/12/08 08:33:14;;;;;;;16.33;8.38;;;3.80;99.90;;;;;;10252532;28;20113;-65
2020/12/08 08:38:18;;;;;;;19.00;9.43;;;3.80;99.90;;;;;;10248097;28;20053;-65
2020/12/08 08:43:19;;;;;;;16.38;8.73;;;3.80;99.90;;;;;;10232378;28;20115;-65
2020/12/08 08:48:24;;;;;;;16.05;9.98;;;3.90;99.90;;;;;;10247964;28;20058;-64
2020/12/08 08:53:25;;;;;;;14.25;7.78;;;4.10;99.90;;;;;;10244749;28;20425;-65
2020/12/08 08:58:28;;;;;;;12.75;8.23;;;4.20;99.90;;;;;;10241640;28;20157;-64
2020/12/08 09:03:29;;;;;;;16.00;9.13;;;4.30;99.90;;;;;;10256272;28;20055;-64
2020/12/08 09:08:30;;;;;;;13.00;8.10;;;4.40;99.90;;;;;;10253346;28;20042;-65
2020/12/08 09:13:32;;;;;;;14.65;8.40;;;4.50;99.90;;;;;;10239391;28;20118;-65
2020/12/08 09:18:33;;;;;;;11.77;6.78;;;4.70;99.90;;;;;;10246556;28;20050;-65
2020/12/08 09:23:34;;;;;;;12.05;7.65;;;4.80;99.90;;;;;;10248692;28;20066;-65
2020/12/08 09:28:36;;;;;;;11.00;7.40;;;4.80;99.90;;;;;;10261027;28;20055;-65
2020/12/08 09:33:38;;;;;;;11.07;7.25;;;5.00;99.90;;;;;;10238569;28;20055;-66
2020/12/08 09:38:39;;;;;;;10.68;6.82;;;5.30;99.90;;;;;;10245869;28;20054;-66
2020/12/08 09:43:40;;;;;;;10.15;6.45;;;5.50;99.90;;;;;;10245729;28;20051;-66
2020/12/08 09:48:41;;;;;;;10.80;6.88;;;5.60;99.90;;;;;;10245421;28;20047;-65
2020/12/08 09:53:43;;;;;;;10.15;7.03;;;5.80;99.90;;;;;;10250836;28;20055;-65
2020/12/08 09:58:44;;;;;;;15.65;7.80;;;5.90;99.90;;;;;;10243322;28;20078;-65
2020/12/08 10:03:45;;;;;;;11.43;7.53;;;6.00;99.90;;;;;;10246419;28;20051;-65
2020/12/08 10:08:47;;;;;;;15.07;8.38;;;6.10;99.90;;;;;;10241532;28;20137;-71
2020/12/08 10:13:48;;;;;;;12.43;7.55;;;6.00;99.90;;;;;;10249683;28;20517;-65
2020/12/08 10:18:50;;;;;;;10.57;7.63;;;6.10;99.90;;;;;;10244292;28;20062;-65
2020/12/08 10:23:52;;;;;;;11.10;7.63;;;6.20;99.90;;;;;;10230857;28;20088;-64
2020/12/08 10:28:54;;;;;;;12.25;7.38;;;6.20;99.90;;;;;;10240110;28;20043;-64
2020/12/08 10:33:56;;;;;;;9.50;6.72;;;6.10;99.90;;;;;;10237385;28;20126;-64
2020/12/08 10:38:57;;;;;;;10.02;7.28;;;6.20;99.90;;;;;;10245256;28;20180;-65
2020/12/08 10:43:58;;;;;;;10.98;6.38;;;6.20;99.90;;;;;;10247890;28;20544;-64
2020/12/08 10:49:00;;;;;;;10.40;7.68;;;6.20;99.90;;;;;;10249722;28;20418;-65
2020/12/08 10:54:01;;;;;;;11.20;6.18;;;6.30;99.90;;;;;;10255238;28;20054;-65
2020/12/08 10:59:02;;;;;;;10.40;6.05;;;6.50;99.90;;;;;;10254848;28;20066;-65
2020/12/08 11:04:10;;;;;;;8.60;6.25;;;6.60;99.30;;;;;;10253521;28;20069;-66
2020/12/08 11:09:11;;;;;;;8.93;6.20;;;6.60;98.40;;;;;;10249908;28;20451;-65
2020/12/08 11:14:12;;;;;;;8.45;5.82;;;6.40;99.00;;;;;;10254991;28;20106;-65
2020/12/08 11:19:13;;;;;;;9.88;6.55;;;6.30;98.10;;;;;;10244711;28;20057;-65
2020/12/08 11:24:15;;;;;;;8.95;5.40;;;6.50;98.80;;;;;;10255182;28;20046;-65
2020/12/08 11:29:16;;;;;;;10.88;7.38;;;6.60;97.90;;;;;;10254032;28;20402;-65
2020/12/08 11:34:17;;;;;;;8.20;6.38;;;6.60;97.40;;;;;;10254052;28;20561;-65
2020/12/08 11:39:18;;;;;;;9.50;6.88;;;6.50;97.20;;;;;;10249092;28;20043;-65
2020/12/08 11:44:20;;;;;;;10.15;7.07;;;6.40;97.60;;;;;;10256731;28;20060;-65
2020/12/08 11:49:21;;;;;;;11.25;7.32;;;6.20;98.60;;;;;;10253436;28;20051;-65
2020/12/08 11:54:22;;;;;;;10.40;7.22;;;6.20;99.10;;;;;;10249120;28;20053;-65
2020/12/08 11:59:24;;;;;;;12.25;8.00;;;6.30;99.10;;;;;;10252052;28;20129;-64
2020/12/08 12:04:25;;;;;;;11.77;7.85;;;6.30;98.70;;;;;;10262597;28;20053;-64
2020/12/08 12:09:26;;;;;;;11.52;8.07;;;6.20;98.80;;;;;;10256770;28;20046;-65
2020/12/08 12:14:27;;;;;;;11.52;7.38;;;6.10;99.50;;;;;;10264828;28;20138;-65
2020/12/08 12:19:29;;;;;;;13.60;7.88;;;6.00;99.40;;;;;;10256256;28;20074;-65
2020/12/08 12:24:30;;;;;;;14.40;8.13;;;5.80;99.90;;;;;;10253418;28;20051;-65
2020/12/08 12:29:32;;;;;;;13.45;8.43;;;5.70;99.90;;;;;;10257247;28;20070;-65
2020/12/08 12:34:33;;;;;;;15.02;8.25;;;6.00;99.90;;;;;;10259790;28;20509;-65
2020/12/08 12:39:34;;;;;;;13.00;8.25;;;6.40;99.90;;;;;;10255412;28;20496;-65
2020/12/08 12:44:36;;;;;;;11.27;7.78;;;6.70;99.30;;;;;;10261714;28;20050;-64
2020/12/08 12:49:37;;;;;;;16.38;9.30;;;6.80;99.10;;;;;;10260526;28;20044;-64
2020/12/08 12:54:39;;;;;;;12.32;8.82;;;6.80;99.90;;;;;;10256941;28;20055;-65
2020/12/08 12:59:41;;;;;;;10.90;7.70;;;6.80;98.80;;;;;;10261845;28;20105;-65
2020/12/08 13:04:42;;;;;;;14.38;9.00;;;7.10;98.50;;;;;;10255787;28;20054;-64
2020/12/08 13:09:44;;;;;;;12.93;7.88;;;7.10;98.10;;;;;;10255056;28;20390;-64
2020/12/08 13:14:46;;;;;;;12.32;7.65;;;7.10;97.80;;;;;;10251827;28;20418;-66
2020/12/08 13:19:51;;;;;;;12.45;8.15;;;6.90;97.90;;;;;;10255147;28;20516;-64
2020/12/08 13:24:52;;;;;;;13.82;9.48;;;6.70;98.10;;;;;;10258263;28;20092;-64
2020/12/08 13:29:53;;;;;;;22.25;11.40;;;6.50;98.50;;;;;;10256193;28;20043;-64
2020/12/08 13:34:54;;;;;;;11.32;8.55;;;6.30;99.70;;;;;;10258618;28;20047;-64
2020/12/08 13:39:56;;;;;;;14.05;10.10;;;6.10;99.60;;;;;;10252502;28;20054;-65
2020/12/08 13:44:57;;;;;;;13.68;9.07;;;5.90;99.90;;;;;;10262002;28;20045;-64
2020/12/08 13:49:58;;;;;;;14.27;9.40;;;5.90;99.90;;;;;;10258929;28;20041;-65
2020/12/08 13:55:00;;;;;;;13.85;8.88;;;5.90;99.90;;;;;;10257930;28;20121;-63
2020/12/08 14:00:02;;;;;;;14.35;8.63;;;6.00;99.90;;;;;;10256023;28;20042;-68
2020/12/08 14:05:03;;;;;;;19.17;11.52;;;6.00;99.90;;;;;;10254315;28;20062;-69
2020/12/08 14:10:06;;;;;;;11.88;7.88;;;6.10;99.90;;;;;;10282665;28;20082;-65
2020/12/08 14:15:07;;;;;;;12.20;8.52;;;6.00;99.90;;;;;;10257492;28;20055;-64
2020/12/08 14:20:13;;;;;;;20.63;11.30;;;5.90;99.90;;;;;;10260137;28;20066;-65
2020/12/08 14:25:17;;;;;;;13.38;8.82;;;5.80;99.90;;;;;;10266698;28;20057;-65
2020/12/08 14:30:18;;;;;;;12.93;8.60;;;5.70;99.90;;;;;;10259191;28;20057;-65
2020/12/08 14:35:20;;;;;;;12.68;8.60;;;5.60;99.90;;;;;;10262646;28;20274;-65
2020/12/08 14:40:21;;;;;;;12.27;9.02;;;5.40;99.90;;;;;;10262257;28;20051;-64
2020/12/08 14:45:30;;;;;;;16.50;9.05;;;5.20;99.90;;;;;;10259119;28;20681;-65
2020/12/08 14:50:31;;;;;;;18.70;9.75;;;5.00;99.90;;;;;;10261989;28;20054;-65
2020/12/08 14:55:34;;;;;;;14.80;8.88;;;4.90;99.90;;;;;;10260927;28;20058;-65
2020/12/08 15:00:35;;;;;;;16.48;9.68;;;4.70;99.90;;;;;;10255959;28;20054;-64
2020/12/08 15:05:36;;;;;;;17.90;10.10;;;4.70;99.90;;;;;;10256180;28;20079;-65
2020/12/08 15:10:38;;;;;;;15.98;9.93;;;4.50;99.90;;;;;;10259727;28;20047;-65
2020/12/08 15:15:39;;;;;;;17.30;8.82;;;4.40;99.90;;;;;;10256199;28;20047;-65
2020/12/08 15:20:41;;;;;;;21.90;10.98;;;4.30;99.90;;;;;;10258963;28;20058;-65
2020/12/08 15:25:42;;;;;;;23.80;10.52;;;4.20;99.90;;;;;;10257645;28;20055;-65
2020/12/08 15:30:56;;;;;;;20.98;11.10;;;4.10;99.90;;;;;;10253281;28;20059;-65
2020/12/08 15:35:57;;;;;;;18.92;10.93;;;4.00;99.90;;;;;;10259262;28;20047;-65
2020/12/08 15:40:59;;;;;;;18.08;10.55;;;3.90;99.90;;;;;;10256736;28;20054;-64
2020/12/08 15:46:00;;;;;;;20.23;10.77;;;3.90;99.90;;;;;;10261914;28;20043;-64
2020/12/08 15:51:02;;;;;;;22.15;11.27;;;3.80;99.90;;;;;;10259008;28;20117;-64
2020/12/08 15:56:03;;;;;;;18.88;11.93;;;3.70;99.90;;;;;;10253858;28;20043;-66
2020/12/08 16:01:05;;;;;;;22.63;11.55;;;3.70;99.90;;;;;;10260500;28;20057;-66
2020/12/08 16:06:09;;;;;;;26.60;13.02;;;3.70;99.90;;;;;;10257413;28;20129;-66
2020/12/08 16:11:10;;;;;;;16.02;10.45;;;3.50;99.90;;;;;;10258357;28;20046;-66
2020/12/08 16:16:12;;;;;;;18.80;10.57;;;3.50;99.90;;;;;;10258687;28;20043;-67
2020/12/08 16:21:13;;;;;;;18.02;10.23;;;3.50;99.90;;;;;;10255176;28;20486;-66
2020/12/08 16:26:15;;;;;;;21.80;10.65;;;3.40;99.90;;;;;;10255284;28;20042;-66
2020/12/08 16:31:21;;;;;;;28.40;13.55;;;3.30;99.90;;;;;;10256093;28;20054;-66
2020/12/08 16:36:23;;;;;;;26.20;11.98;;;3.20;99.90;;;;;;10254147;28;20065;-66
2020/12/08 16:41:30;;;;;;;22.77;11.25;;;3.10;99.90;;;;;;10256735;28;20046;-66
2020/12/08 16:46:32;;;;;;;22.92;11.20;;;3.00;99.90;;;;;;10260159;28;20042;-66
2020/12/08 16:51:35;;;;;;;23.05;10.60;;;3.00;99.90;;;;;;10250116;28;20054;-66
2020/12/08 16:56:38;;;;;;;30.13;13.70;;;3.00;99.90;;;;;;10257001;28;20046;-66
2020/12/08 17:01:45;;;;;;;23.63;12.50;;;2.90;99.90;;;;;;10259515;28;20050;-67
2020/12/08 17:06:46;;;;;;;25.35;12.60;;;2.90;99.90;;;;;;10255529;28;20043;-67
2020/12/08 17:11:48;;;;;;;26.77;12.27;;;2.90;99.90;;;;;;10257716;28;20509;-68
2020/12/08 17:16:49;;;;;;;26.15;13.65;;;2.80;99.90;;;;;;10252330;28;20046;-68
2020/12/08 17:21:51;;;;;;;25.90;14.82;;;2.70;99.90;;;;;;10253407;28;20139;-66
2020/12/08 17:26:53;;;;;;;24.77;13.50;;;2.60;99.90;;;;;;10259341;28;20046;-66
2020/12/08 17:31:55;;;;;;;24.50;13.77;;;2.50;99.90;;;;;;10246975;28;20201;-66
2020/12/08 17:36:57;;;;;;;26.95;12.88;;;2.40;99.90;;;;;;10259950;28;20502;-65
2020/12/08 17:41:59;;;;;;;27.35;14.77;;;2.40;99.90;;;;;;10260507;28;20046;-66
2020/12/08 17:47:01;;;;;;;34.08;16.55;;;2.40;99.90;;;;;;10255362;28;20125;-65
2020/12/08 17:52:03;;;;;;;31.50;15.90;;;2.30;99.90;;;;;;10249978;28;20468;-65
2020/12/08 17:57:04;;;;;;;37.70;18.30;;;2.30;99.90;;;;;;10262189;28;20054;-66
2020/12/08 18:02:06;;;;;;;30.83;14.98;;;2.20;99.90;;;;;;10263931;28;20138;-66
2020/12/08 18:07:09;;;;;;;31.75;14.20;;;2.10;99.90;;;;;;10262923;28;20379;-66
2020/12/08 18:12:10;;;;;;;28.63;14.50;;;2.10;99.90;;;;;;10262892;28;20053;-67
2020/12/08 18:17:11;;;;;;;50.53;24.58;;;2.00;99.90;;;;;;10262481;28;20128;-66
2020/12/08 18:22:12;;;;;;;28.80;15.93;;;1.90;99.90;;;;;;10255797;28;20051;-67
2020/12/08 18:27:14;;;;;;;31.17;14.30;;;1.90;99.90;;;;;;10263970;28;20066;-67
2020/12/08 18:32:15;;;;;;;37.65;16.58;;;1.80;99.90;;;;;;10272582;28;20058;-67
2020/12/08 18:37:17;;;;;;;31.95;16.02;;;1.70;99.90;;;;;;10261350;28;20043;-68
2020/12/08 18:42:19;;;;;;;47.15;22.38;;;1.70;99.90;;;;;;10261818;28;20074;-70
2020/12/08 18:47:22;;;;;;;52.38;26.00;;;1.60;99.90;;;;;;10265369;28;20169;-67
2020/12/08 18:52:24;;;;;;;47.20;25.00;;;1.60;99.90;;;;;;10260254;28;20066;-68
2020/12/08 18:57:26;;;;;;;43.53;19.95;;;1.50;99.90;;;;;;10261881;28;20050;-67
2020/12/08 19:02:27;;;;;;;41.58;18.25;;;1.50;99.90;;;;;;10261442;28;20070;-69
2020/12/08 19:07:29;;;;;;;34.75;16.67;;;1.40;99.90;;;;;;10257179;28;20065;-69
2020/12/08 19:12:31;;;;;;;42.33;20.15;;;1.40;99.90;;;;;;10260159;28;20598;-68
2020/12/08 19:17:35;;;;;;;36.90;18.30;;;1.30;99.90;;;;;;10260012;28;20103;-68
2020/12/08 19:22:37;;;;;;;39.22;19.98;;;1.30;99.90;;;;;;10257098;28;20371;-69
2020/12/08 19:27:39;;;;;;;28.80;15.20;;;1.20;99.90;;;;;;10259133;28;20055;-69
2020/12/08 19:32:41;;;;;;;30.27;15.07;;;1.20;99.90;;;;;;10254676;28;20115;-69
2020/12/08 19:37:42;;;;;;;36.30;16.42;;;1.20;99.90;;;;;;10255395;28;20513;-70
2020/12/08 19:42:47;;;;;;;31.25;15.55;;;1.20;99.90;;;;;;10259590;28;20127;-69
2020/12/08 19:47:49;;;;;;;27.48;15.80;;;1.20;99.90;;;;;;10262724;28;20054;-69
2020/12/08 19:58:09;;;;;;;;;;;1.10;99.90;;;;;;10256411;28;20141;-65
2020/12/08 20:03:10;;;;;;;35.55;18.48;;;1.10;99.90;;;;;;10258155;28;19926;-66
2020/12/08 20:08:14;;;;;;;30.85;15.65;;;1.10;99.90;;;;;;10256962;28;20117;-67
2020/12/08 20:13:15;;;;;;;41.38;18.75;;;1.20;99.90;;;;;;10254432;28;20055;-66
2020/12/08 20:18:17;;;;;;;50.03;22.23;;;1.10;99.90;;;;;;10254770;28;20054;-67
2020/12/08 20:23:18;;;;;;;47.70;21.05;;;1.10;99.90;;;;;;10257752;28;20631;-67
2020/12/08 20:28:20;;;;;;;32.47;17.30;;;1.00;99.90;;;;;;10257603;28;20054;-68
2020/12/08 20:33:21;;;;;;;36.83;17.95;;;1.00;99.90;;;;;;10258853;28;20043;-66
2020/12/08 20:38:23;;;;;;;35.17;16.17;;;1.00;99.90;;;;;;10250493;28;20750;-67
2020/12/08 20:43:24;;;;;;;35.13;18.10;;;1.00;99.90;;;;;;10254796;28;20043;-67
2020/12/08 20:48:26;;;;;;;29.98;15.20;;;1.00;99.90;;;;;;10259596;28;20039;-67
2020/12/08 20:53:27;;;;;;;39.70;18.83;;;1.00;99.90;;;;;;10311333;28;20056;-67
2020/12/08 20:58:30;;;;;;;35.90;18.67;;;1.00;99.90;;;;;;10325068;28;20053;-67
2020/12/08 21:03:36;;;;;;;39.63;19.23;;;1.00;99.90;;;;;;10328272;28;20420;-67
2020/12/08 21:08:37;;;;;;;42.75;20.83;;;1.00;99.90;;;;;;10326381;28;20070;-67
2020/12/08 21:13:39;;;;;;;34.55;18.73;;;1.00;99.90;;;;;;10329849;28;20054;-67
2020/12/08 21:18:41;;;;;;;47.85;21.80;;;1.00;99.90;;;;;;10298602;28;20491;-67
2020/12/08 21:23:42;;;;;;;40.35;20.38;;;1.00;99.90;;;;;;10294553;28;20068;-67
2020/12/08 21:28:43;;;;;;;41.03;17.95;;;1.00;99.90;;;;;;10292722;28;20054;-68
2020/12/08 21:33:46;;;;;;;27.92;14.45;;;0.90;99.90;;;;;;10292731;28;20058;-67
2020/12/08 21:38:48;;;;;;;32.88;17.80;;;0.90;99.90;;;;;;10284553;28;20941;-67
2020/12/08 21:43:51;;;;;;;34.35;15.57;;;0.90;99.90;;;;;;10289875;28;20103;-67
2020/12/08 21:48:52;;;;;;;35.58;16.85;;;0.90;99.90;;;;;;10289142;28;20050;-67
2020/12/08 21:53:54;;;;;;;34.65;15.65;;;0.90;99.90;;;;;;10291910;28;20477;-67
2020/12/08 21:58:56;;;;;;;34.15;14.60;;;0.90;99.90;;;;;;10290749;28;20058;-67
2020/12/08 22:03:57;;;;;;;28.55;15.77;;;0.90;99.90;;;;;;10284218;28;20517;-67
2020/12/08 22:08:58;;;;;;;34.00;16.33;;;1.00;99.90;;;;;;10286167;28;20058;-67
2020/12/08 22:13:59;;;;;;;32.45;17.08;;;1.00;99.90;;;;;;10288985;28;20194;-67
2020/12/08 22:19:00;;;;;;;31.48;16.67;;;1.00;99.90;;;;;;10284862;28;20515;-66
2020/12/08 22:24:02;;;;;;;32.85;16.65;;;1.00;99.90;;;;;;10285940;28;20055;-67
2020/12/08 22:29:04;;;;;;;32.55;14.75;;;1.00;99.90;;;;;;10284900;28;20047;-67
2020/12/08 22:34:05;;;;;;;26.80;13.68;;;1.00;99.90;;;;;;10284673;28;20052;-67
2020/12/08 22:39:06;;;;;;;42.03;15.73;;;1.00;99.90;;;;;;10291874;28;20058;-66
2020/12/08 22:44:07;;;;;;;39.72;15.23;;;0.90;99.90;;;;;;10293928;28;20042;-67
2020/12/08 22:49:09;;;;;;;30.73;15.43;;;0.90;99.90;;;;;;10291031;28;20046;-67
2020/12/08 22:54:10;;;;;;;45.45;22.80;;;0.80;99.90;;;;;;10295515;28;20089;-66
2020/12/08 22:59:11;;;;;;;38.75;17.90;;;0.70;99.90;;;;;;10291318;28;20054;-67
2020/12/08 23:04:13;;;;;;;42.35;16.85;;;0.70;99.90;;;;;;10297251;28;20058;-68
2020/12/08 23:09:15;;;;;;;35.70;15.57;;;0.60;99.90;;;;;;10291366;28;20047;-67
2020/12/08 23:14:16;;;;;;;31.40;14.25;;;0.50;99.90;;;;;;10293860;28;20067;-67
2020/12/08 23:19:18;;;;;;;34.88;16.30;;;0.60;99.90;;;;;;10290665;28;20116;-68
2020/12/08 23:24:20;;;;;;;40.33;17.35;;;0.60;99.90;;;;;;10292604;28;20059;-68
2020/12/08 23:29:21;;;;;;;34.88;15.48;;;0.50;99.90;;;;;;10289902;28;20065;-67
2020/12/08 23:34:23;;;;;;;34.67;15.98;;;0.50;99.90;;;;;;10294203;28;20047;-66
2020/12/08 23:39:25;;;;;;;33.80;16.33;;;0.60;99.90;;;;;;10284359;28;20054;-67
2020/12/08 23:44:27;;;;;;;27.83;15.30;;;0.60;99.90;;;;;;10293776;28;20065;-67
2020/12/08 23:49:28;;;;;;;32.40;16.27;;;0.60;99.90;;;;;;10278767;28;20058;-67
2020/12/08 23:54:30;;;;;;;29.63;14.40;;;0.60;99.90;;;;;;10284707;28;20408;-67
2020/12/08 23:59:31;;;;;;;32.72;14.95;;;0.60;99.90;;;;;;10286059;28;20054;-67
